sensor_id;sensor_type;location;lat;lon;timestamp;P1;durP1;ratioP1;P2;durP2;ratioP2
17761;SDS011;9005;48.838;10.112;2023-02-01T00:00:11;1.80;;;1.50;;
17761;SDS011;9005;48.838;10.112;2023-02-01T00:02:38;2.08;;;1.65;;
17761;SDS011;9005;48.838;10.112;2023-02-01T00:05:06;1.58;;;1.15;;
17761;SDS011;9005;48.838;10.112;2023-02-01T00:07:33;2.38;;;1.48;;
17761;SDS011;9005;48.838;10.112;2023-02-01T00:10:00;1.80;;;1.67;;
17761;SDS011;9005;48.838;10.112;2023-02-01T00:12:28;1.42;;;1.33;;
17761;SDS011;9005;48.838;10.112;2023-02-01T00:14:56;1.77;;;1.10;;
17761;SDS011;9005;48.838;10.112;2023-02-01T00:17:23;2.83;;;0.93;;
17761;SDS011;9005;48.838;10.112;2023-02-01T00:19:50;1.55;;;1.45;;
17761;SDS011;9005;48.838;10.112;2023-02-01T00:22:17;2.15;;;1.60;;
17761;SDS011;9005;48.838;10.112;2023-02-01T00:24:44;1.67;;;1.30;;
17761;SDS011;9005;48.838;10.112;2023-02-01T00:27:10;1.65;;;1.10;;
17761;SDS011;9005;48.838;10.112;2023-02-01T00:29:42;1.58;;;1.10;;
17761;SDS011;9005;48.838;10.112;2023-02-01T00:32:11;2.72;;;1.40;;
17761;SDS011;9005;48.838;10.112;2023-02-01T00:34:38;2.45;;;1.60;;
17761;SDS011;9005;48.838;10.112;2023-02-01T00:37:05;1.13;;;0.93;;
17761;SDS011;9005;48.838;10.112;2023-02-01T00:39:32;2.25;;;1.50;;
17761;SDS011;9005;48.838;10.112;2023-02-01T00:41:59;3.03;;;1.77;;
17761;SDS011;9005;48.838;10.112;2023-02-01T00:44:27;1.40;;;1.23;;
17761;SDS011;9005;48.838;10.112;2023-02-01T00:46:58;2.50;;;1.27;;
17761;SDS011;9005;48.838;10.112;2023-02-01T00:49:26;1.65;;;1.40;;
17761;SDS011;9005;48.838;10.112;2023-02-01T00:51:53;1.80;;;1.38;;
17761;SDS011;9005;48.838;10.112;2023-02-01T00:54:20;2.65;;;1.50;;
17761;SDS011;9005;48.838;10.112;2023-02-01T00:56:46;1.17;;;1.00;;
17761;SDS011;9005;48.838;10.112;2023-02-01T00:59:13;1.27;;;0.90;;
17761;SDS011;9005;48.838;10.112;2023-02-01T01:01:40;1.63;;;1.38;;
17761;SDS011;9005;48.838;10.112;2023-02-01T01:04:07;1.35;;;1.05;;
17761;SDS011;9005;48.838;10.112;2023-02-01T01:06:35;1.70;;;1.10;;
17761;SDS011;9005;48.838;10.112;2023-02-01T01:09:02;1.88;;;1.13;;
17761;SDS011;9005;48.838;10.112;2023-02-01T01:11:31;1.58;;;1.10;;
17761;SDS011;9005;48.838;10.112;2023-02-01T01:14:00;0.90;;;0.90;;
17761;SDS011;9005;48.838;10.112;2023-02-01T01:16:27;1.00;;;0.90;;
17761;SDS011;9005;48.838;10.112;2023-02-01T01:18:55;1.90;;;1.13;;
17761;SDS011;9005;48.838;10.112;2023-02-01T01:21:22;0.80;;;0.80;;
17761;SDS011;9005;48.838;10.112;2023-02-01T01:23:51;1.00;;;0.90;;
17761;SDS011;9005;48.838;10.112;2023-02-01T01:26:19;2.08;;;0.93;;
17761;SDS011;9005;48.838;10.112;2023-02-01T01:28:47;0.95;;;0.85;;
17761;SDS011;9005;48.838;10.112;2023-02-01T01:31:15;1.67;;;1.40;;
17761;SDS011;9005;48.838;10.112;2023-02-01T01:33:43;1.38;;;0.82;;
17761;SDS011;9005;48.838;10.112;2023-02-01T01:36:10;1.08;;;0.98;;
17761;SDS011;9005;48.838;10.112;2023-02-01T01:38:38;2.17;;;1.00;;
17761;SDS011;9005;48.838;10.112;2023-02-01T01:41:07;1.58;;;0.90;;
17761;SDS011;9005;48.838;10.112;2023-02-01T01:43:46;1.60;;;1.00;;
17761;SDS011;9005;48.838;10.112;2023-02-01T01:46:15;0.85;;;0.80;;
17761;SDS011;9005;48.838;10.112;2023-02-01T01:48:43;1.00;;;0.60;;
17761;SDS011;9005;48.838;10.112;2023-02-01T01:51:10;1.35;;;0.70;;
17761;SDS011;9005;48.838;10.112;2023-02-01T01:53:41;1.42;;;0.90;;
17761;SDS011;9005;48.838;10.112;2023-02-01T01:56:12;1.40;;;0.80;;
17761;SDS011;9005;48.838;10.112;2023-02-01T01:58:40;1.35;;;0.68;;
17761;SDS011;9005;48.838;10.112;2023-02-01T02:01:07;0.80;;;0.80;;
17761;SDS011;9005;48.838;10.112;2023-02-01T02:03:34;1.80;;;1.17;;
17761;SDS011;9005;48.838;10.112;2023-02-01T02:06:05;1.02;;;0.75;;
17761;SDS011;9005;48.838;10.112;2023-02-01T02:08:40;0.70;;;0.70;;
17761;SDS011;9005;48.838;10.112;2023-02-01T02:11:07;2.35;;;0.85;;
17761;SDS011;9005;48.838;10.112;2023-02-01T02:13:36;2.78;;;1.35;;
17761;SDS011;9005;48.838;10.112;2023-02-01T02:16:17;1.10;;;0.70;;
17761;SDS011;9005;48.838;10.112;2023-02-01T02:19:06;0.82;;;0.73;;
17761;SDS011;9005;48.838;10.112;2023-02-01T02:21:49;0.77;;;0.77;;
17761;SDS011;9005;48.838;10.112;2023-02-01T02:27:34;0.80;;;0.50;;
17761;SDS011;9005;48.838;10.112;2023-02-01T02:36:08;0.57;;;0.57;;
17761;SDS011;9005;48.838;10.112;2023-02-01T02:38:43;0.68;;;0.68;;
17761;SDS011;9005;48.838;10.112;2023-02-01T02:41:16;0.43;;;0.40;;
17761;SDS011;9005;48.838;10.112;2023-02-01T02:44:00;1.75;;;0.60;;
17761;SDS011;9005;48.838;10.112;2023-02-01T02:46:53;0.73;;;0.73;;
17761;SDS011;9005;48.838;10.112;2023-02-01T02:49:49;0.57;;;0.57;;
17761;SDS011;9005;48.838;10.112;2023-02-01T02:52:33;0.70;;;0.70;;
17761;SDS011;9005;48.838;10.112;2023-02-01T02:55:22;1.88;;;0.77;;
17761;SDS011;9005;48.838;10.112;2023-02-01T02:57:51;1.77;;;1.25;;
17761;SDS011;9005;48.838;10.112;2023-02-01T03:00:35;0.88;;;0.60;;
17761;SDS011;9005;48.838;10.112;2023-02-01T03:03:21;0.60;;;0.60;;
17761;SDS011;9005;48.838;10.112;2023-02-01T03:06:09;0.50;;;0.50;;
17761;SDS011;9005;48.838;10.112;2023-02-01T03:08:39;0.40;;;0.40;;
17761;SDS011;9005;48.838;10.112;2023-02-01T03:11:10;0.77;;;0.52;;
17761;SDS011;9005;48.838;10.112;2023-02-01T03:13:41;0.73;;;0.73;;
17761;SDS011;9005;48.838;10.112;2023-02-01T03:16:11;0.68;;;0.68;;
17761;SDS011;9005;48.838;10.112;2023-02-01T03:18:42;0.80;;;0.70;;
17761;SDS011;9005;48.838;10.112;2023-02-01T03:21:17;1.48;;;0.63;;
17761;SDS011;9005;48.838;10.112;2023-02-01T03:23:49;0.65;;;0.60;;
17761;SDS011;9005;48.838;10.112;2023-02-01T03:26:19;2.47;;;0.60;;
17761;SDS011;9005;48.838;10.112;2023-02-01T03:28:48;0.50;;;0.50;;
17761;SDS011;9005;48.838;10.112;2023-02-01T03:31:18;0.70;;;0.70;;
17761;SDS011;9005;48.838;10.112;2023-02-01T03:33:45;2.50;;;0.70;;
17761;SDS011;9005;48.838;10.112;2023-02-01T03:36:15;0.63;;;0.63;;
17761;SDS011;9005;48.838;10.112;2023-02-01T03:38:52;0.75;;;0.70;;
17761;SDS011;9005;48.838;10.112;2023-02-01T03:41:26;0.50;;;0.50;;
17761;SDS011;9005;48.838;10.112;2023-02-01T03:44:01;0.52;;;0.50;;
17761;SDS011;9005;48.838;10.112;2023-02-01T03:46:35;0.60;;;0.60;;
17761;SDS011;9005;48.838;10.112;2023-02-01T03:49:06;0.50;;;0.45;;
17761;SDS011;9005;48.838;10.112;2023-02-01T03:51:37;0.50;;;0.50;;
17761;SDS011;9005;48.838;10.112;2023-02-01T03:54:06;0.80;;;0.68;;
17761;SDS011;9005;48.838;10.112;2023-02-01T03:56:36;0.85;;;0.52;;
17761;SDS011;9005;48.838;10.112;2023-02-01T03:59:05;0.50;;;0.50;;
17761;SDS011;9005;48.838;10.112;2023-02-01T04:01:32;2.15;;;0.60;;
17761;SDS011;9005;48.838;10.112;2023-02-01T04:03:58;2.72;;;0.73;;
17761;SDS011;9005;48.838;10.112;2023-02-01T04:06:25;2.08;;;0.60;;
17761;SDS011;9005;48.838;10.112;2023-02-01T04:08:53;1.13;;;0.60;;
17761;SDS011;9005;48.838;10.112;2023-02-01T04:11:20;0.63;;;0.63;;
17761;SDS011;9005;48.838;10.112;2023-02-01T04:13:47;2.35;;;0.60;;
17761;SDS011;9005;48.838;10.112;2023-02-01T04:16:14;1.10;;;0.80;;
17761;SDS011;9005;48.838;10.112;2023-02-01T04:18:40;0.35;;;0.35;;
17761;SDS011;9005;48.838;10.112;2023-02-01T04:21:07;2.00;;;0.43;;
17761;SDS011;9005;48.838;10.112;2023-02-01T04:23:34;0.50;;;0.50;;
17761;SDS011;9005;48.838;10.112;2023-02-01T04:26:03;0.88;;;0.45;;
17761;SDS011;9005;48.838;10.112;2023-02-01T04:28:30;0.80;;;0.80;;
17761;SDS011;9005;48.838;10.112;2023-02-01T04:30:57;4.70;;;0.65;;
17761;SDS011;9005;48.838;10.112;2023-02-01T04:33:24;0.85;;;0.60;;
17761;SDS011;9005;48.838;10.112;2023-02-01T04:35:51;0.77;;;0.70;;
17761;SDS011;9005;48.838;10.112;2023-02-01T04:38:17;0.60;;;0.60;;
17761;SDS011;9005;48.838;10.112;2023-02-01T04:40:46;1.02;;;0.85;;
17761;SDS011;9005;48.838;10.112;2023-02-01T04:43:15;0.45;;;0.45;;
17761;SDS011;9005;48.838;10.112;2023-02-01T04:45:41;0.63;;;0.47;;
17761;SDS011;9005;48.838;10.112;2023-02-01T04:48:12;0.60;;;0.50;;
17761;SDS011;9005;48.838;10.112;2023-02-01T04:50:39;0.40;;;0.40;;
17761;SDS011;9005;48.838;10.112;2023-02-01T04:53:05;0.65;;;0.65;;
17761;SDS011;9005;48.838;10.112;2023-02-01T04:55:32;1.20;;;0.65;;
17761;SDS011;9005;48.838;10.112;2023-02-01T04:57:59;0.70;;;0.57;;
17761;SDS011;9005;48.838;10.112;2023-02-01T05:00:27;0.85;;;0.65;;
17761;SDS011;9005;48.838;10.112;2023-02-01T05:02:54;0.38;;;0.38;;
17761;SDS011;9005;48.838;10.112;2023-02-01T05:05:20;0.50;;;0.50;;
17761;SDS011;9005;48.838;10.112;2023-02-01T05:07:47;0.93;;;0.70;;
17761;SDS011;9005;48.838;10.112;2023-02-01T05:10:14;0.70;;;0.70;;
17761;SDS011;9005;48.838;10.112;2023-02-01T05:12:42;0.70;;;0.70;;
17761;SDS011;9005;48.838;10.112;2023-02-01T05:15:28;2.08;;;0.55;;
17761;SDS011;9005;48.838;10.112;2023-02-01T05:17:55;1.15;;;1.05;;
17761;SDS011;9005;48.838;10.112;2023-02-01T05:20:22;1.63;;;0.73;;
17761;SDS011;9005;48.838;10.112;2023-02-01T05:22:49;0.55;;;0.55;;
17761;SDS011;9005;48.838;10.112;2023-02-01T05:25:16;0.65;;;0.63;;
17761;SDS011;9005;48.838;10.112;2023-02-01T05:27:44;0.73;;;0.60;;
17761;SDS011;9005;48.838;10.112;2023-02-01T05:30:11;0.40;;;0.40;;
17761;SDS011;9005;48.838;10.112;2023-02-01T05:32:40;0.82;;;0.73;;
17761;SDS011;9005;48.838;10.112;2023-02-01T05:35:07;0.63;;;0.63;;
17761;SDS011;9005;48.838;10.112;2023-02-01T05:37:34;0.68;;;0.57;;
17761;SDS011;9005;48.838;10.112;2023-02-01T05:40:01;2.78;;;0.68;;
17761;SDS011;9005;48.838;10.112;2023-02-01T05:42:27;0.40;;;0.40;;
17761;SDS011;9005;48.838;10.112;2023-02-01T05:44:54;1.17;;;0.68;;
17761;SDS011;9005;48.838;10.112;2023-02-01T05:47:21;1.15;;;0.73;;
17761;SDS011;9005;48.838;10.112;2023-02-01T05:49:49;0.90;;;0.90;;
17761;SDS011;9005;48.838;10.112;2023-02-01T05:52:16;0.57;;;0.57;;
17761;SDS011;9005;48.838;10.112;2023-02-01T05:54:44;0.63;;;0.63;;
17761;SDS011;9005;48.838;10.112;2023-02-01T05:57:11;0.80;;;0.80;;
17761;SDS011;9005;48.838;10.112;2023-02-01T05:59:38;1.17;;;1.08;;
17761;SDS011;9005;48.838;10.112;2023-02-01T06:02:06;1.55;;;0.68;;
17761;SDS011;9005;48.838;10.112;2023-02-01T06:04:33;0.70;;;0.70;;
17761;SDS011;9005;48.838;10.112;2023-02-01T06:07:01;0.93;;;0.80;;
17761;SDS011;9005;48.838;10.112;2023-02-01T06:09:28;0.40;;;0.40;;
17761;SDS011;9005;48.838;10.112;2023-02-01T06:11:55;3.15;;;1.13;;
17761;SDS011;9005;48.838;10.112;2023-02-01T06:14:22;0.95;;;0.93;;
17761;SDS011;9005;48.838;10.112;2023-02-01T06:16:49;0.70;;;0.50;;
17761;SDS011;9005;48.838;10.112;2023-02-01T06:19:16;0.82;;;0.75;;
17761;SDS011;9005;48.838;10.112;2023-02-01T06:21:43;0.77;;;0.70;;
17761;SDS011;9005;48.838;10.112;2023-02-01T06:24:11;0.65;;;0.63;;
17761;SDS011;9005;48.838;10.112;2023-02-01T06:26:37;1.13;;;0.85;;
17761;SDS011;9005;48.838;10.112;2023-02-01T06:29:05;0.85;;;0.60;;
17761;SDS011;9005;48.838;10.112;2023-02-01T06:31:32;0.70;;;0.70;;
17761;SDS011;9005;48.838;10.112;2023-02-01T06:33:59;2.47;;;0.77;;
17761;SDS011;9005;48.838;10.112;2023-02-01T06:36:26;1.40;;;0.80;;
17761;SDS011;9005;48.838;10.112;2023-02-01T06:38:53;1.55;;;0.80;;
17761;SDS011;9005;48.838;10.112;2023-02-01T06:41:22;0.52;;;0.47;;
17761;SDS011;9005;48.838;10.112;2023-02-01T06:43:50;0.75;;;0.40;;
17761;SDS011;9005;48.838;10.112;2023-02-01T06:46:16;0.70;;;0.68;;
17761;SDS011;9005;48.838;10.112;2023-02-01T06:48:43;1.15;;;0.90;;
17761;SDS011;9005;48.838;10.112;2023-02-01T06:51:18;0.88;;;0.80;;
17761;SDS011;9005;48.838;10.112;2023-02-01T06:53:48;1.50;;;0.73;;
17761;SDS011;9005;48.838;10.112;2023-02-01T06:56:15;1.88;;;0.50;;
17761;SDS011;9005;48.838;10.112;2023-02-01T06:58:44;2.13;;;0.80;;
17761;SDS011;9005;48.838;10.112;2023-02-01T07:01:10;1.27;;;0.75;;
17761;SDS011;9005;48.838;10.112;2023-02-01T07:03:38;0.82;;;0.82;;
17761;SDS011;9005;48.838;10.112;2023-02-01T07:06:05;2.90;;;0.73;;
17761;SDS011;9005;48.838;10.112;2023-02-01T07:08:33;1.33;;;0.50;;
17761;SDS011;9005;48.838;10.112;2023-02-01T07:11:01;0.68;;;0.68;;
17761;SDS011;9005;48.838;10.112;2023-02-01T07:13:28;3.92;;;0.70;;
17761;SDS011;9005;48.838;10.112;2023-02-01T07:15:58;0.80;;;0.70;;
17761;SDS011;9005;48.838;10.112;2023-02-01T07:18:25;1.13;;;0.65;;
17761;SDS011;9005;48.838;10.112;2023-02-01T07:20:52;3.03;;;0.80;;
17761;SDS011;9005;48.838;10.112;2023-02-01T07:23:19;0.70;;;0.70;;
17761;SDS011;9005;48.838;10.112;2023-02-01T07:25:46;1.70;;;1.08;;
17761;SDS011;9005;48.838;10.112;2023-02-01T07:28:13;7.72;;;0.60;;
17761;SDS011;9005;48.838;10.112;2023-02-01T07:30:40;0.88;;;0.77;;
17761;SDS011;9005;48.838;10.112;2023-02-01T07:33:08;2.80;;;0.80;;
17761;SDS011;9005;48.838;10.112;2023-02-01T07:35:35;12.65;;;2.13;;
17761;SDS011;9005;48.838;10.112;2023-02-01T07:38:02;1.60;;;0.90;;
17761;SDS011;9005;48.838;10.112;2023-02-01T07:40:28;3.53;;;0.73;;
17761;SDS011;9005;48.838;10.112;2023-02-01T07:42:55;6.85;;;1.05;;
17761;SDS011;9005;48.838;10.112;2023-02-01T07:45:22;0.77;;;0.77;;
17761;SDS011;9005;48.838;10.112;2023-02-01T07:47:51;1.52;;;0.50;;
17761;SDS011;9005;48.838;10.112;2023-02-01T07:50:20;2.72;;;0.93;;
17761;SDS011;9005;48.838;10.112;2023-02-01T07:52:46;0.80;;;0.80;;
17761;SDS011;9005;48.838;10.112;2023-02-01T07:55:13;0.93;;;0.80;;
17761;SDS011;9005;48.838;10.112;2023-02-01T07:57:40;0.88;;;0.88;;
17761;SDS011;9005;48.838;10.112;2023-02-01T08:00:07;0.80;;;0.80;;
17761;SDS011;9005;48.838;10.112;2023-02-01T08:02:52;0.88;;;0.80;;
17761;SDS011;9005;48.838;10.112;2023-02-01T08:05:20;3.33;;;1.05;;
17761;SDS011;9005;48.838;10.112;2023-02-01T08:07:48;2.05;;;1.00;;
17761;SDS011;9005;48.838;10.112;2023-02-01T08:10:15;1.20;;;1.10;;
17761;SDS011;9005;48.838;10.112;2023-02-01T08:12:42;2.33;;;1.30;;
17761;SDS011;9005;48.838;10.112;2023-02-01T08:15:12;1.35;;;1.25;;
17761;SDS011;9005;48.838;10.112;2023-02-01T08:17:40;1.27;;;1.10;;
17761;SDS011;9005;48.838;10.112;2023-02-01T08:20:07;1.40;;;1.00;;
17761;SDS011;9005;48.838;10.112;2023-02-01T08:22:36;3.30;;;1.42;;
17761;SDS011;9005;48.838;10.112;2023-02-01T08:25:03;2.28;;;1.40;;
17761;SDS011;9005;48.838;10.112;2023-02-01T08:27:32;1.30;;;1.17;;
17761;SDS011;9005;48.838;10.112;2023-02-01T08:29:59;1.90;;;1.23;;
17761;SDS011;9005;48.838;10.112;2023-02-01T08:32:26;1.23;;;1.00;;
17761;SDS011;9005;48.838;10.112;2023-02-01T08:34:53;1.20;;;1.13;;
17761;SDS011;9005;48.838;10.112;2023-02-01T08:37:20;1.17;;;1.02;;
17761;SDS011;9005;48.838;10.112;2023-02-01T08:39:48;1.90;;;1.10;;
17761;SDS011;9005;48.838;10.112;2023-02-01T08:42:15;1.25;;;1.10;;
17761;SDS011;9005;48.838;10.112;2023-02-01T08:45:00;1.10;;;1.00;;
17761;SDS011;9005;48.838;10.112;2023-02-01T08:47:27;1.05;;;0.85;;
17761;SDS011;9005;48.838;10.112;2023-02-01T08:49:54;0.90;;;0.90;;
17761;SDS011;9005;48.838;10.112;2023-02-01T08:52:21;1.27;;;1.08;;
17761;SDS011;9005;48.838;10.112;2023-02-01T08:54:49;1.15;;;1.02;;
17761;SDS011;9005;48.838;10.112;2023-02-01T08:57:15;2.42;;;1.00;;
17761;SDS011;9005;48.838;10.112;2023-02-01T08:59:42;1.08;;;0.98;;
17761;SDS011;9005;48.838;10.112;2023-02-01T09:02:10;2.35;;;0.80;;
17761;SDS011;9005;48.838;10.112;2023-02-01T09:04:39;1.70;;;0.68;;
17761;SDS011;9005;48.838;10.112;2023-02-01T09:07:06;0.50;;;0.50;;
17761;SDS011;9005;48.838;10.112;2023-02-01T09:09:32;3.08;;;1.70;;
17761;SDS011;9005;48.838;10.112;2023-02-01T09:12:01;0.80;;;0.80;;
17761;SDS011;9005;48.838;10.112;2023-02-01T09:14:28;1.05;;;0.88;;
17761;SDS011;9005;48.838;10.112;2023-02-01T09:16:55;2.15;;;1.10;;
17761;SDS011;9005;48.838;10.112;2023-02-01T09:19:22;1.00;;;0.98;;
17761;SDS011;9005;48.838;10.112;2023-02-01T09:21:48;1.10;;;0.90;;
17761;SDS011;9005;48.838;10.112;2023-02-01T09:24:16;1.55;;;1.45;;
17761;SDS011;9005;48.838;10.112;2023-02-01T09:26:42;1.10;;;1.00;;
17761;SDS011;9005;48.838;10.112;2023-02-01T09:29:11;1.75;;;1.20;;
17761;SDS011;9005;48.838;10.112;2023-02-01T09:31:38;1.63;;;1.20;;
17761;SDS011;9005;48.838;10.112;2023-02-01T09:34:05;3.53;;;1.33;;
17761;SDS011;9005;48.838;10.112;2023-02-01T09:36:33;1.40;;;1.27;;
17761;SDS011;9005;48.838;10.112;2023-02-01T09:39:00;1.67;;;1.10;;
17761;SDS011;9005;48.838;10.112;2023-02-01T09:41:32;1.65;;;1.17;;
17761;SDS011;9005;48.838;10.112;2023-02-01T09:44:08;1.33;;;1.02;;
17761;SDS011;9005;48.838;10.112;2023-02-01T09:46:47;2.17;;;1.35;;
17761;SDS011;9005;48.838;10.112;2023-02-01T09:49:18;1.92;;;1.10;;
17761;SDS011;9005;48.838;10.112;2023-02-01T09:51:50;1.50;;;1.10;;
17761;SDS011;9005;48.838;10.112;2023-02-01T09:54:18;2.33;;;1.20;;
17761;SDS011;9005;48.838;10.112;2023-02-01T09:56:48;2.08;;;1.35;;
17761;SDS011;9005;48.838;10.112;2023-02-01T09:59:26;2.28;;;1.42;;
17761;SDS011;9005;48.838;10.112;2023-02-01T10:01:59;2.72;;;1.85;;
17761;SDS011;9005;48.838;10.112;2023-02-01T10:04:29;3.58;;;1.42;;
17761;SDS011;9005;48.838;10.112;2023-02-01T10:07:01;2.25;;;1.23;;
17761;SDS011;9005;48.838;10.112;2023-02-01T10:09:40;2.35;;;1.40;;
17761;SDS011;9005;48.838;10.112;2023-02-01T10:15:11;2.53;;;1.15;;
17761;SDS011;9005;48.838;10.112;2023-02-01T10:17:50;3.67;;;1.50;;
17761;SDS011;9005;48.838;10.112;2023-02-01T10:20:27;2.78;;;1.23;;
17761;SDS011;9005;48.838;10.112;2023-02-01T10:23:18;1.92;;;1.17;;
17761;SDS011;9005;48.838;10.112;2023-02-01T10:25:54;2.10;;;1.10;;
17761;SDS011;9005;48.838;10.112;2023-02-01T10:28:22;3.05;;;1.38;;
17761;SDS011;9005;48.838;10.112;2023-02-01T10:30:53;2.17;;;1.20;;
17761;SDS011;9005;48.838;10.112;2023-02-01T10:33:24;1.40;;;1.02;;
17761;SDS011;9005;48.838;10.112;2023-02-01T10:35:54;2.35;;;1.08;;
17761;SDS011;9005;48.838;10.112;2023-02-01T10:38:29;2.35;;;1.13;;
17761;SDS011;9005;48.838;10.112;2023-02-01T10:41:03;1.90;;;1.05;;
17761;SDS011;9005;48.838;10.112;2023-02-01T10:43:37;2.33;;;1.23;;
17761;SDS011;9005;48.838;10.112;2023-02-01T10:46:06;1.55;;;1.10;;
17761;SDS011;9005;48.838;10.112;2023-02-01T10:48:34;1.98;;;1.20;;
17761;SDS011;9005;48.838;10.112;2023-02-01T10:51:02;2.25;;;1.17;;
17761;SDS011;9005;48.838;10.112;2023-02-01T10:53:33;1.30;;;1.02;;
17761;SDS011;9005;48.838;10.112;2023-02-01T10:56:05;1.80;;;1.10;;
17761;SDS011;9005;48.838;10.112;2023-02-01T10:58:33;2.17;;;1.20;;
17761;SDS011;9005;48.838;10.112;2023-02-01T11:01:10;1.60;;;1.00;;
17761;SDS011;9005;48.838;10.112;2023-02-01T11:03:43;3.28;;;1.95;;
17761;SDS011;9005;48.838;10.112;2023-02-01T11:06:24;1.85;;;1.00;;
17761;SDS011;9005;48.838;10.112;2023-02-01T11:08:54;1.98;;;1.10;;
17761;SDS011;9005;48.838;10.112;2023-02-01T11:11:23;2.80;;;1.40;;
17761;SDS011;9005;48.838;10.112;2023-02-01T11:13:51;2.05;;;1.30;;
17761;SDS011;9005;48.838;10.112;2023-02-01T11:16:23;3.55;;;1.58;;
17761;SDS011;9005;48.838;10.112;2023-02-01T11:18:56;2.42;;;1.50;;
17761;SDS011;9005;48.838;10.112;2023-02-01T11:21:24;2.20;;;1.20;;
17761;SDS011;9005;48.838;10.112;2023-02-01T11:23:52;2.20;;;1.30;;
17761;SDS011;9005;48.838;10.112;2023-02-01T11:26:20;3.08;;;1.20;;
17761;SDS011;9005;48.838;10.112;2023-02-01T11:28:51;2.95;;;2.05;;
17761;SDS011;9005;48.838;10.112;2023-02-01T11:31:22;2.65;;;1.10;;
17761;SDS011;9005;48.838;10.112;2023-02-01T11:33:53;2.88;;;1.10;;
17761;SDS011;9005;48.838;10.112;2023-02-01T11:36:23;2.08;;;1.42;;
17761;SDS011;9005;48.838;10.112;2023-02-01T11:38:53;2.17;;;1.20;;
17761;SDS011;9005;48.838;10.112;2023-02-01T11:41:33;3.25;;;1.45;;
17761;SDS011;9005;48.838;10.112;2023-02-01T11:44:01;3.63;;;1.35;;
17761;SDS011;9005;48.838;10.112;2023-02-01T11:46:43;2.47;;;1.48;;
17761;SDS011;9005;48.838;10.112;2023-02-01T11:49:19;4.18;;;1.35;;
17761;SDS011;9005;48.838;10.112;2023-02-01T11:51:58;3.75;;;1.35;;
17761;SDS011;9005;48.838;10.112;2023-02-01T11:54:38;3.15;;;1.40;;
17761;SDS011;9005;48.838;10.112;2023-02-01T11:57:22;3.35;;;1.23;;
17761;SDS011;9005;48.838;10.112;2023-02-01T12:00:06;3.17;;;1.40;;
17761;SDS011;9005;48.838;10.112;2023-02-01T12:02:57;2.92;;;1.25;;
17761;SDS011;9005;48.838;10.112;2023-02-01T12:05:41;4.85;;;1.77;;
17761;SDS011;9005;48.838;10.112;2023-02-01T12:08:35;2.35;;;1.20;;
17761;SDS011;9005;48.838;10.112;2023-02-01T12:11:22;3.42;;;1.42;;
17761;SDS011;9005;48.838;10.112;2023-02-01T12:14:04;1.40;;;1.00;;
17761;SDS011;9005;48.838;10.112;2023-02-01T12:16:44;4.05;;;1.85;;
17761;SDS011;9005;48.838;10.112;2023-02-01T12:19:26;2.15;;;1.38;;
17761;SDS011;9005;48.838;10.112;2023-02-01T12:22:18;2.33;;;1.20;;
17761;SDS011;9005;48.838;10.112;2023-02-01T12:24:59;3.22;;;1.30;;
17761;SDS011;9005;48.838;10.112;2023-02-01T12:27:54;3.55;;;1.42;;
17761;SDS011;9005;48.838;10.112;2023-02-01T12:30:44;3.22;;;1.38;;
17761;SDS011;9005;48.838;10.112;2023-02-01T12:33:22;4.05;;;1.50;;
17761;SDS011;9005;48.838;10.112;2023-02-01T12:36:03;4.55;;;1.58;;
17761;SDS011;9005;48.838;10.112;2023-02-01T12:38:42;4.45;;;1.80;;
17761;SDS011;9005;48.838;10.112;2023-02-01T12:41:19;3.47;;;1.50;;
17761;SDS011;9005;48.838;10.112;2023-02-01T12:44:00;4.47;;;1.40;;
17761;SDS011;9005;48.838;10.112;2023-02-01T12:46:34;3.55;;;1.70;;
17761;SDS011;9005;48.838;10.112;2023-02-01T12:49:08;4.32;;;1.98;;
17761;SDS011;9005;48.838;10.112;2023-02-01T12:51:40;3.30;;;1.27;;
17761;SDS011;9005;48.838;10.112;2023-02-01T12:54:11;3.92;;;1.75;;
17761;SDS011;9005;48.838;10.112;2023-02-01T12:56:44;5.45;;;1.52;;
17761;SDS011;9005;48.838;10.112;2023-02-01T12:59:17;6.07;;;2.03;;
17761;SDS011;9005;48.838;10.112;2023-02-01T13:01:49;5.13;;;1.80;;
17761;SDS011;9005;48.838;10.112;2023-02-01T13:04:24;4.57;;;1.33;;
17761;SDS011;9005;48.838;10.112;2023-02-01T13:06:57;6.63;;;1.80;;
17761;SDS011;9005;48.838;10.112;2023-02-01T13:09:29;4.93;;;1.55;;
17761;SDS011;9005;48.838;10.112;2023-02-01T13:12:03;4.60;;;1.40;;
17761;SDS011;9005;48.838;10.112;2023-02-01T13:14:37;4.32;;;2.00;;
17761;SDS011;9005;48.838;10.112;2023-02-01T13:17:09;4.25;;;1.90;;
17761;SDS011;9005;48.838;10.112;2023-02-01T13:19:42;4.47;;;1.70;;
17761;SDS011;9005;48.838;10.112;2023-02-01T13:22:17;5.20;;;1.55;;
17761;SDS011;9005;48.838;10.112;2023-02-01T13:24:47;4.32;;;1.75;;
17761;SDS011;9005;48.838;10.112;2023-02-01T13:27:18;5.15;;;2.05;;
17761;SDS011;9005;48.838;10.112;2023-02-01T13:29:48;2.55;;;1.60;;
17761;SDS011;9005;48.838;10.112;2023-02-01T13:35:37;5.80;;;2.25;;
17761;SDS011;9005;48.838;10.112;2023-02-01T13:38:29;4.55;;;1.55;;
17761;SDS011;9005;48.838;10.112;2023-02-01T13:41:29;3.53;;;1.83;;
17761;SDS011;9005;48.838;10.112;2023-02-01T13:43:59;5.13;;;1.55;;
17761;SDS011;9005;48.838;10.112;2023-02-01T13:46:29;6.18;;;1.50;;
17761;SDS011;9005;48.838;10.112;2023-02-01T13:48:57;4.18;;;1.83;;
17761;SDS011;9005;48.838;10.112;2023-02-01T13:51:32;4.05;;;1.70;;
17761;SDS011;9005;48.838;10.112;2023-02-01T13:54:04;4.15;;;1.70;;
17761;SDS011;9005;48.838;10.112;2023-02-01T13:56:39;5.72;;;2.03;;
17761;SDS011;9005;48.838;10.112;2023-02-01T14:08:37;7.15;;;2.70;;
17761;SDS011;9005;48.838;10.112;2023-02-01T14:11:08;4.57;;;1.63;;
17761;SDS011;9005;48.838;10.112;2023-02-01T14:20:36;4.63;;;1.60;;
17761;SDS011;9005;48.838;10.112;2023-02-01T14:23:11;4.93;;;2.03;;
17761;SDS011;9005;48.838;10.112;2023-02-01T14:25:43;3.80;;;2.05;;
17761;SDS011;9005;48.838;10.112;2023-02-01T14:28:16;4.50;;;1.55;;
17761;SDS011;9005;48.838;10.112;2023-02-01T14:30:50;4.28;;;1.50;;
17761;SDS011;9005;48.838;10.112;2023-02-01T14:33:18;4.00;;;1.70;;
17761;SDS011;9005;48.838;10.112;2023-02-01T14:35:56;4.63;;;1.55;;
17761;SDS011;9005;48.838;10.112;2023-02-01T14:38:33;6.03;;;2.10;;
17761;SDS011;9005;48.838;10.112;2023-02-01T14:41:21;5.10;;;2.40;;
17761;SDS011;9005;48.838;10.112;2023-02-01T14:44:23;4.57;;;1.60;;
17761;SDS011;9005;48.838;10.112;2023-02-01T14:47:05;3.67;;;1.92;;
17761;SDS011;9005;48.838;10.112;2023-02-01T14:49:48;3.85;;;1.65;;
17761;SDS011;9005;48.838;10.112;2023-02-01T14:52:20;5.05;;;1.77;;
17761;SDS011;9005;48.838;10.112;2023-02-01T14:54:54;5.05;;;1.67;;
17761;SDS011;9005;48.838;10.112;2023-02-01T14:57:26;4.95;;;2.10;;
17761;SDS011;9005;48.838;10.112;2023-02-01T14:59:59;5.70;;;2.25;;
17761;SDS011;9005;48.838;10.112;2023-02-01T15:02:30;7.38;;;2.50;;
17761;SDS011;9005;48.838;10.112;2023-02-01T15:05:12;5.00;;;1.83;;
17761;SDS011;9005;48.838;10.112;2023-02-01T15:07:50;3.95;;;1.42;;
17761;SDS011;9005;48.838;10.112;2023-02-01T15:10:17;5.53;;;2.00;;
17761;SDS011;9005;48.838;10.112;2023-02-01T15:12:46;4.45;;;1.42;;
17761;SDS011;9005;48.838;10.112;2023-02-01T15:15:17;5.60;;;1.80;;
17761;SDS011;9005;48.838;10.112;2023-02-01T15:17:51;3.60;;;1.45;;
17761;SDS011;9005;48.838;10.112;2023-02-01T15:20:21;4.65;;;2.20;;
17761;SDS011;9005;48.838;10.112;2023-02-01T15:22:53;5.07;;;1.83;;
17761;SDS011;9005;48.838;10.112;2023-02-01T15:25:22;4.55;;;1.52;;
17761;SDS011;9005;48.838;10.112;2023-02-01T15:27:50;5.55;;;2.08;;
17761;SDS011;9005;48.838;10.112;2023-02-01T15:30:20;5.80;;;2.20;;
17761;SDS011;9005;48.838;10.112;2023-02-01T15:32:48;5.65;;;2.03;;
17761;SDS011;9005;48.838;10.112;2023-02-01T15:35:35;5.43;;;1.88;;
17761;SDS011;9005;48.838;10.112;2023-02-01T15:41:06;6.25;;;2.38;;
17761;SDS011;9005;48.838;10.112;2023-02-01T15:43:36;4.32;;;1.77;;
17761;SDS011;9005;48.838;10.112;2023-02-01T15:46:08;3.67;;;2.10;;